Terminal Aerodrome Forecast
Issued by NWS Quad Cities IA IL

Home | Current Version | Previous Version | Text Only | Print | Product List | Glossary On
Versions: 1 2 3 4 5 6 7 8 9 10 11 12 13 14 15 16 17 18 19 20
000
FTUS43 KDVN 191738
TAFDBQ
TAF
KDBQ 191738Z 1918/2018 04006KT 1/4SM -RA FG VV003
      TEMPO 1918/1920 1/2SM TSRA FG OVC003CB
     FM201100 VRB03KT 1/2SM FG OVC005=

USA.gov is the U.S. government's official web portal to all federal, state and local government web resources and services.